Time;durP1;ratioP1;P1;durP2;ratioP2;P2;SDS_P1;SDS_P2;PMS_P1;PMS_P2;Temp;Humidity;BMP_temperature;BMP_pressure;BME280_temperature;BME280_humidity;BME280_pressure;Samples;Min_cycle;Max_cycle;Signal;HPM_P1;HPM_P2
2022/06/12 00:00:23;;;;;;;9.15;3.45;;;;;;;13.27;81.28;102220.06;4952322;28;20027;-77
2022/06/12 00:02:49;;;;;;;13.20;4.50;;;;;;;13.26;81.01;102215.72;4951216;28;20418;-76
2022/06/12 00:05:17;;;;;;;10.52;4.07;;;;;;;13.25;81.41;102216.69;4963386;28;20027;-77
2022/06/12 00:07:42;;;;;;;12.38;4.35;;;;;;;13.18;81.64;102211.75;4970037;28;20530;-77
2022/06/12 00:10:09;;;;;;;9.30;3.90;;;;;;;13.18;81.79;102224.13;4969831;28;20043;-77
2022/06/12 00:12:35;;;;;;;13.45;3.83;;;;;;;13.16;81.33;102213.59;4956189;28;20082;-78
2022/06/12 00:15:02;;;;;;;9.23;3.63;;;;;;;13.12;82.09;102217.38;4966177;28;20122;-77
2022/06/12 00:17:27;;;;;;;10.88;3.70;;;;;;;13.11;81.99;102215.69;4953136;28;20023;-77
2022/06/12 00:19:53;;;;;;;10.90;3.38;;;;;;;13.09;81.60;102207.00;4968215;28;20133;-77
2022/06/12 00:22:18;;;;;;;11.13;3.88;;;;;;;13.07;81.73;102203.63;4969615;28;20126;-77
2022/06/12 00:24:44;;;;;;;8.57;3.90;;;;;;;13.08;81.88;102207.97;4968958;28;20029;-77
2022/06/12 00:27:09;;;;;;;10.98;4.05;;;;;;;13.02;82.22;102216.28;4970154;28;20031;-77
2022/06/12 00:29:36;;;;;;;11.18;3.72;;;;;;;12.96;81.77;102216.66;4969698;28;20097;-77
2022/06/12 00:32:09;;;;;;;9.93;4.15;;;;;;;12.92;82.13;102207.22;4969801;28;20034;-77
2022/06/12 00:34:36;;;;;;;;;;;;;;;13.06;79.27;102215.13;4969967;28;20022;-77
2022/06/12 00:37:03;;;;;;;12.75;3.83;;;;;;;12.86;81.87;102211.09;4970369;28;19910;-78
2022/06/12 00:39:32;;;;;;;9.80;3.72;;;;;;;12.84;82.31;102215.63;4967774;28;20033;-77
2022/06/12 00:42:00;;;;;;;9.75;3.97;;;;;;;12.81;82.32;102205.25;4968771;28;20076;-77
2022/06/12 00:44:34;;;;;;;8.75;3.85;;;;;;;12.75;82.44;102208.25;4984143;28;20034;-77
2022/06/12 00:47:04;;;;;;;11.02;3.75;;;;;;;12.71;82.78;102214.66;4970201;28;20039;-77
2022/06/12 00:49:40;;;;;;;7.30;3.88;;;;;;;12.74;82.53;102211.84;4970485;28;20022;-80
2022/06/12 00:52:13;;;;;;;9.38;3.97;;;;;;;12.65;82.53;102214.19;4970311;28;20168;-80
2022/06/12 00:54:43;;;;;;;10.00;4.10;;;;;;;12.62;83.05;102222.31;4970509;28;20091;-80
2022/06/12 00:57:09;;;;;;;12.23;3.83;;;;;;;12.55;82.64;102216.56;4970822;28;20031;-80
2022/06/12 00:59:49;;;;;;;7.53;3.47;;;;;;;12.51;83.34;102221.16;4969609;28;20031;-80
2022/06/12 01:02:22;;;;;;;10.55;4.40;;;;;;;12.50;83.12;102216.84;4969530;28;20064;-77
2022/06/12 01:07:42;;;;;;;10.82;3.70;;;;;;;12.42;82.65;102211.16;4931473;29;20139;-77
2022/06/12 01:10:12;;;;;;;10.02;4.32;;;;;;;12.36;83.10;102213.28;4932101;29;20130;-77
2022/06/12 01:12:43;;;;;;;11.73;4.28;;;;;;;12.38;83.17;102216.69;4944603;29;20077;-77
2022/06/12 01:15:14;;;;;;;11.43;4.45;;;;;;;12.34;83.42;102218.66;4949238;28;20035;-77
2022/06/12 01:17:42;;;;;;;9.15;3.58;;;;;;;12.30;83.58;102211.88;4954141;28;20133;-78
2022/06/12 01:20:12;;;;;;;10.40;4.05;;;;;;;12.24;83.78;102214.88;4969132;28;20058;-77
2022/06/12 01:23:02;;;;;;;9.63;3.70;;;;;;;12.24;83.61;102212.25;4969006;28;20508;-77
2022/06/12 01:25:58;;;;;;;12.10;4.20;;;;;;;12.26;82.99;102212.16;4969536;28;20535;-78
2022/06/12 01:28:45;;;;;;;10.50;4.25;;;;;;;12.19;83.49;102215.16;4983828;28;20134;-77
2022/06/12 01:31:34;;;;;;;11.07;4.30;;;;;;;12.16;83.90;102212.69;4969534;28;20019;-78
2022/06/12 01:34:15;;;;;;;8.85;3.95;;;;;;;12.14;83.21;102213.72;4969453;28;20022;-77
2022/06/12 01:36:48;;;;;;;11.45;4.43;;;;;;;12.04;84.06;102213.44;4971358;28;20058;-77
2022/06/12 01:39:29;;;;;;;13.32;4.25;;;;;;;12.04;84.40;102210.78;4988035;28;20027;-77
2022/06/12 01:41:54;;;;;;;11.38;3.80;;;;;;;12.08;84.56;102211.47;4972765;28;20026;-77
2022/06/12 01:44:40;;;;;;;12.05;4.30;;;;;;;12.08;84.57;102206.19;4973163;28;20433;-77
2022/06/12 01:47:11;;;;;;;10.95;4.40;;;;;;;11.98;84.32;102202.34;4971607;28;20129;-77
2022/06/12 01:49:48;;;;;;;14.40;4.22;;;;;;;11.96;84.74;102201.59;4970533;28;20480;-78
2022/06/12 01:52:31;;;;;;;12.70;4.22;;;;;;;11.96;84.31;102204.22;4971670;28;20085;-77
2022/06/12 01:55:12;;;;;;;14.57;4.28;;;;;;;11.93;84.75;102208.75;4971972;28;20459;-78
2022/06/12 01:57:42;;;;;;;9.10;3.88;;;;;;;11.96;84.51;102206.88;4972427;28;20037;-77
2022/06/12 02:00:18;;;;;;;11.68;4.35;;;;;;;11.83;84.49;102196.19;4973822;28;20034;-78
2022/06/12 02:03:02;;;;;;;10.18;4.18;;;;;;;11.78;85.12;102199.09;4947188;29;20498;-77
2022/06/12 02:05:39;;;;;;;8.80;4.00;;;;;;;11.79;84.61;102200.78;4966116;28;20460;-77
2022/06/12 02:08:14;;;;;;;10.68;4.15;;;;;;;11.72;84.93;102203.84;4988751;28;20022;-77
2022/06/12 02:10:46;;;;;;;12.07;4.13;;;;;;;11.68;85.21;102200.53;4972846;28;20031;-77
2022/06/12 02:13:27;;;;;;;10.57;4.30;;;;;;;11.70;84.60;102206.56;4955299;28;20700;-77
2022/06/12 02:16:06;;;;;;;11.82;4.35;;;;;;;11.67;84.64;102206.75;4951661;29;20054;-77
2022/06/12 02:18:38;;;;;;;9.90;4.03;;;;;;;11.57;84.73;102205.53;4965243;28;20018;-77
2022/06/12 02:21:10;;;;;;;8.43;4.10;;;;;;;11.62;85.00;102214.06;4972298;28;20521;-78
2022/06/12 02:23:46;;;;;;;8.68;4.13;;;;;;;11.53;85.19;102212.78;4969851;28;20031;-77
2022/06/12 02:26:17;;;;;;;13.77;4.60;;;;;;;11.48;85.60;102211.34;4972513;28;20034;-78
2022/06/12 02:28:48;;;;;;;12.88;4.50;;;;;;;11.46;85.63;102214.06;4971721;28;20034;-77
2022/06/12 02:31:19;;;;;;;11.10;4.73;;;;;;;11.50;85.81;102204.19;4971703;28;20477;-78
2022/06/12 02:33:50;;;;;;;11.15;4.93;;;;;;;11.43;86.63;102208.09;4986461;28;20818;-77
2022/06/12 02:36:22;;;;;;;10.52;4.75;;;;;;;11.46;86.47;102202.66;4970765;28;20038;-78
2022/06/12 02:38:56;;;;;;;11.70;4.65;;;;;;;11.45;86.62;102196.53;4971025;28;20037;-77
2022/06/12 02:41:35;;;;;;;13.30;4.78;;;;;;;11.45;86.68;102200.97;4972154;28;20034;-77
2022/06/12 02:44:09;;;;;;;12.27;5.07;;;;;;;11.39;86.95;102203.94;4986587;28;20118;-78
2022/06/12 02:46:45;;;;;;;11.15;4.88;;;;;;;11.43;87.23;102193.16;4970454;28;20485;-78
2022/06/12 02:49:13;;;;;;;13.63;5.40;;;;;;;11.38;87.31;102199.63;4987009;28;20117;-77
2022/06/12 02:51:48;;;;;;;13.80;4.55;;;;;;;11.42;86.92;102190.59;4969492;28;20058;-78
2022/06/12 02:54:52;;;;;;;9.30;4.50;;;;;;;11.41;86.86;102191.53;4971845;28;20548;-77
2022/06/12 02:57:34;;;;;;;15.02;4.85;;;;;;;11.32;87.76;102195.53;4972161;28;20137;-77
2022/06/12 03:00:06;;;;;;;11.70;4.43;;;;;;;11.34;87.92;102192.81;4987343;28;20054;-77
2022/06/12 03:02:41;;;;;;;13.90;5.10;;;;;;;11.33;87.63;102191.13;4971277;28;20137;-77
2022/06/12 03:05:29;;;;;;;14.95;5.78;;;;;;;11.41;87.30;102189.75;4961083;28;20023;-78
2022/06/12 03:08:03;;;;;;;15.10;5.35;;;;;;;11.41;88.15;102188.91;4968459;28;20027;-77
2022/06/12 03:10:37;;;;;;;17.52;5.57;;;;;;;11.42;88.54;102185.31;4953527;28;20046;-77
2022/06/12 03:13:07;;;;;;;17.48;5.70;;;;;;;11.43;88.66;102189.66;4953061;28;20030;-77
2022/06/12 03:15:38;;;;;;;14.68;5.55;;;;;;;11.41;88.48;102199.44;4951460;28;20031;-77
2022/06/12 03:18:07;;;;;;;12.05;5.82;;;;;;;11.37;88.31;102205.81;4961128;28;20091;-78
2022/06/12 03:20:43;;;;;;;15.30;5.57;;;;;;;11.41;88.40;102205.56;4971586;28;20082;-78
2022/06/12 03:23:47;;;;;;;13.77;5.53;;;;;;;11.43;87.89;102202.84;4972390;28;20114;-78
2022/06/12 03:26:42;;;;;;;13.57;5.50;;;;;;;11.46;88.01;102207.94;4958742;28;20449;-78
2022/06/12 03:29:52;;;;;;;17.60;5.68;;;;;;;11.49;87.44;102202.50;4972160;28;20058;-78
2022/06/12 03:32:34;;;;;;;14.32;6.20;;;;;;;11.47;87.92;102204.38;4933650;29;20473;-77
2022/06/12 03:35:02;;;;;;;24.60;7.45;;;;;;;11.47;88.97;102205.22;4933134;29;20157;-77
2022/06/12 03:37:45;;;;;;;14.70;6.00;;;;;;;11.46;88.75;102200.03;4955274;28;20038;-77
2022/06/12 03:40:38;;;;;;;11.93;5.90;;;;;;;11.46;89.11;102202.66;4985736;28;20042;-78
2022/06/12 03:43:21;;;;;;;11.73;6.13;;;;;;;11.46;88.78;102207.94;4969902;28;20528;-78
2022/06/12 03:46:14;;;;;;;15.10;6.20;;;;;;;11.46;89.29;102210.56;4984958;28;20030;-78
2022/06/12 03:49:07;;;;;;;21.90;7.00;;;;;;;11.42;89.63;102212.53;4969734;28;20405;-78
2022/06/12 03:51:46;;;;;;;;;;;;;;;11.51;86.79;102205.88;4971083;28;20030;-78
2022/06/12 03:54:45;;;;;;;17.08;6.32;;;;;;;11.40;88.59;102210.91;4970968;28;19920;-78
2022/06/12 04:00:16;;;;;;;14.27;6.03;;;;;;;11.43;88.80;102208.09;4971057;28;20038;-78
2022/06/12 04:02:43;;;;;;;13.23;5.80;;;;;;;11.84;88.57;102205.81;4958728;28;20055;-78
2022/06/12 04:05:17;;;;;;;13.38;5.32;;;;;;;12.31;86.48;102213.56;4959076;28;20058;-78
2022/06/12 04:07:46;;;;;;;15.80;5.90;;;;;;;13.07;82.71;102202.78;4968813;28;20030;-78
2022/06/12 04:10:17;;;;;;;14.50;5.05;;;;;;;13.67;79.89;102202.50;4969094;28;20133;-78
2022/06/12 04:12:44;;;;;;;12.70;5.50;;;;;;;13.91;77.68;102194.72;4968238;28;20031;-77
2022/06/12 04:15:15;;;;;;;12.10;4.65;;;;;;;14.22;76.15;102210.25;4932998;29;20023;-77
2022/06/12 04:17:41;;;;;;;11.63;5.00;;;;;;;14.26;75.30;102202.94;4941321;28;20157;-78
2022/06/12 04:20:14;;;;;;;11.73;4.95;;;;;;;14.58;74.13;102200.78;4971888;28;20029;-77
2022/06/12 04:22:48;;;;;;;12.90;5.50;;;;;;;13.94;76.04;102198.00;4970636;28;20275;-78
2022/06/12 04:25:40;;;;;;;11.02;4.63;;;;;;;14.02;75.50;102205.47;4971441;28;20130;-78
2022/06/12 04:28:23;;;;;;;12.32;4.70;;;;;;;13.42;77.43;102204.06;4971473;28;20045;-77
2022/06/12 04:30:49;;;;;;;;;;;;;;;13.47;77.66;102207.25;4970905;28;20027;-78
2022/06/12 04:33:50;;;;;;;14.48;4.88;;;;;;;13.06;78.50;102217.78;4971674;28;20377;-78
2022/06/12 04:36:15;;;;;;;13.50;4.93;;;;;;;12.84;79.89;102213.00;4966817;28;20043;-78
2022/06/12 04:38:41;;;;;;;9.90;5.20;;;;;;;12.75;79.86;102218.81;4967807;28;20019;-78
2022/06/12 04:41:06;;;;;;;14.48;4.80;;;;;;;12.72;80.16;102220.78;4970517;28;20031;-78
2022/06/12 04:43:33;;;;;;;13.05;5.40;;;;;;;12.59;80.36;102218.06;4968947;28;20251;-77
2022/06/12 04:45:58;;;;;;;10.25;4.65;;;;;;;12.67;81.09;102215.78;4970326;28;20054;-78
2022/06/12 04:48:27;;;;;;;11.35;4.95;;;;;;;12.50;80.28;102219.47;4968855;28;20065;-78
2022/06/12 04:50:52;;;;;;;14.23;5.03;;;;;;;12.40;81.43;102220.94;4969187;28;20031;-78
2022/06/12 04:53:18;;;;;;;13.25;5.15;;;;;;;12.44;81.33;102213.72;4970166;28;20031;-78
2022/06/12 04:55:43;;;;;;;12.13;4.68;;;;;;;12.45;81.82;102210.97;4969454;28;20026;-78
2022/06/12 04:58:09;;;;;;;15.82;5.10;;;;;;;12.43;81.39;102220.78;4969454;28;20069;-78
2022/06/12 05:00:34;;;;;;;13.82;5.03;;;;;;;12.47;81.95;102222.28;4969179;28;20031;-78
2022/06/12 05:03:01;;;;;;;11.57;4.95;;;;;;;12.54;81.47;102209.56;4970262;28;20098;-78
2022/06/12 05:05:26;;;;;;;12.15;4.78;;;;;;;12.52;81.62;102214.94;4955483;28;20034;-78
2022/06/12 05:07:52;;;;;;;14.88;5.07;;;;;;;12.58;81.78;102212.88;4964775;28;20027;-78
2022/06/12 05:10:18;;;;;;;12.20;5.38;;;;;;;12.57;81.72;102213.81;4950410;28;20088;-78
2022/06/12 05:12:44;;;;;;;15.57;5.03;;;;;;;12.60;81.69;102203.91;4949311;28;20477;-78
2022/06/12 05:15:12;;;;;;;17.17;5.47;;;;;;;12.65;81.84;102211.56;4949520;29;20027;-77
2022/06/12 05:17:42;;;;;;;16.30;5.30;;;;;;;12.71;81.87;102217.31;4955178;28;20105;-78
2022/06/12 05:20:16;;;;;;;14.43;4.90;;;;;;;12.76;81.59;102220.50;4969253;28;20114;-78
2022/06/12 05:22:41;;;;;;;14.73;5.20;;;;;;;12.84;82.16;102218.28;4970462;28;20047;-78
2022/06/12 05:25:07;;;;;;;13.68;4.80;;;;;;;12.90;82.13;102211.75;4969640;28;20503;-78
2022/06/12 05:27:32;;;;;;;17.25;5.50;;;;;;;13.00;81.59;102212.03;4969750;28;20031;-78
2022/06/12 05:29:59;;;;;;;14.55;5.03;;;;;;;13.03;81.57;102219.75;4970990;28;20412;-78
2022/06/12 05:32:26;;;;;;;15.57;5.22;;;;;;;13.10;81.58;102214.00;4970965;28;20452;-78
2022/06/12 05:34:52;;;;;;;13.85;5.05;;;;;;;13.21;81.36;102209.84;4969724;28;20026;-78
2022/06/12 05:37:18;;;;;;;16.00;5.18;;;;;;;13.33;81.35;102217.03;4970782;28;20027;-78
2022/06/12 05:39:44;;;;;;;14.70;5.65;;;;;;;13.40;80.97;102210.41;4968561;28;20027;-78
2022/06/12 05:42:10;;;;;;;17.98;6.15;;;;;;;13.49;80.43;102210.66;4970472;28;20034;-78
2022/06/12 05:44:36;;;;;;;17.45;5.18;;;;;;;13.56;80.28;102210.25;4969142;28;20146;-78
2022/06/12 05:47:02;;;;;;;19.40;5.60;;;;;;;13.64;80.07;102214.13;4969042;28;20038;-78
2022/06/12 05:49:28;;;;;;;14.27;5.32;;;;;;;13.70;79.64;102213.72;4969651;28;20485;-78
2022/06/12 05:51:55;;;;;;;17.02;5.80;;;;;;;13.78;79.64;102213.22;4968352;28;20067;-78
2022/06/12 05:54:20;;;;;;;16.35;5.53;;;;;;;13.90;79.77;102219.47;4967689;28;20066;-78
2022/06/12 05:56:46;;;;;;;15.82;5.93;;;;;;;13.96;79.63;102224.38;4967454;28;20444;-78
2022/06/12 05:59:12;;;;;;;22.88;6.20;;;;;;;14.00;80.26;102218.75;4967943;28;20035;-78
2022/06/12 06:01:39;;;;;;;15.75;5.40;;;;;;;14.08;80.18;102223.56;4966894;28;20496;-78
2022/06/12 06:04:07;;;;;;;21.40;6.20;;;;;;;14.18;80.28;102224.66;4981749;28;20030;-78
2022/06/12 06:06:37;;;;;;;17.70;5.90;;;;;;;14.27;80.53;102231.13;4949867;28;20580;-78
2022/06/12 06:09:04;;;;;;;20.63;6.50;;;;;;;14.34;80.22;102225.31;4949869;28;20051;-78
2022/06/12 06:11:30;;;;;;;18.63;5.88;;;;;;;14.41;80.82;102221.31;4947968;29;20090;-78
2022/06/12 06:13:55;;;;;;;17.38;5.75;;;;;;;14.52;81.11;102233.00;4948613;29;20071;-78
2022/06/12 06:16:21;;;;;;;18.75;5.78;;;;;;;14.60;80.69;102235.97;4949489;28;20110;-78
2022/06/12 06:18:46;;;;;;;21.10;5.40;;;;;;;14.67;81.14;102231.94;4961223;28;20026;-78
2022/06/12 06:21:14;;;;;;;22.95;6.78;;;;;;;14.77;81.19;102238.28;4971414;28;20031;-78
2022/06/12 06:23:40;;;;;;;21.40;6.00;;;;;;;14.90;81.35;102238.28;4972818;28;20038;-78
2022/06/12 06:26:06;;;;;;;26.88;6.65;;;;;;;14.99;81.18;102230.53;4972582;28;20031;-78
2022/06/12 06:28:32;;;;;;;25.10;6.53;;;;;;;15.09;81.54;102232.53;4973290;28;20031;-78
2022/06/12 06:30:58;;;;;;;25.92;6.22;;;;;;;15.23;81.57;102235.06;4973088;28;20050;-78
2022/06/12 06:33:23;;;;;;;25.13;6.90;;;;;;;15.44;81.77;102230.00;4973773;28;20022;-78
2022/06/12 06:35:49;;;;;;;27.98;7.20;;;;;;;15.58;81.08;102233.38;4971812;28;20035;-78
2022/06/12 06:38:15;;;;;;;24.10;6.95;;;;;;;15.72;80.94;102234.19;4972939;28;20030;-78
2022/06/12 06:40:40;;;;;;;27.00;6.68;;;;;;;15.76;79.04;102230.34;4971627;28;20026;-78
2022/06/12 06:43:07;;;;;;;27.45;7.20;;;;;;;15.79;79.19;102236.28;4972767;28;20129;-78
2022/06/12 06:48:17;;;;;;;17.95;6.57;;;;;;;15.94;79.31;102235.13;4972520;28;20038;-79
2022/06/12 06:50:43;;;;;;;23.58;6.75;;;;;;;15.99;78.80;102240.09;4970332;28;20481;-79
2022/06/12 06:53:09;;;;;;;24.40;6.80;;;;;;;16.11;78.48;102241.00;4972358;28;20620;-79
2022/06/12 06:55:36;;;;;;;22.02;6.72;;;;;;;16.19;76.99;102246.59;4971411;28;20030;-79
2022/06/12 06:58:07;;;;;;;24.45;6.57;;;;;;;16.33;76.93;102242.88;4971695;28;20581;-78
2022/06/12 07:00:34;;;;;;;21.30;6.75;;;;;;;16.40;76.59;102246.75;4971359;28;20031;-78
2022/06/12 07:02:59;;;;;;;22.85;6.90;;;;;;;16.63;76.18;102240.53;4972279;28;20450;-78
2022/06/12 07:05:25;;;;;;;24.10;7.15;;;;;;;16.79;75.65;102248.19;4957650;28;20106;-79
2022/06/12 07:07:51;;;;;;;24.00;6.57;;;;;;;16.91;75.18;102240.13;4966946;28;20027;-78
2022/06/12 07:10:20;;;;;;;23.13;6.93;;;;;;;17.17;74.75;102245.19;4952528;28;20043;-78
2022/06/12 07:12:46;;;;;;;21.77;6.88;;;;;;;17.26;73.52;102239.16;4965987;28;20046;-78
2022/06/12 07:15:13;;;;;;;21.10;6.28;;;;;;;17.30;73.36;102245.91;4952964;28;20030;-78
2022/06/12 07:17:39;;;;;;;20.83;6.03;;;;;;;17.53;72.64;102236.91;4956063;28;20041;-78
2022/06/12 07:20:10;;;;;;;21.10;6.55;;;;;;;17.61;72.10;102238.09;4971390;28;20114;-80
2022/06/12 07:22:36;;;;;;;22.65;6.80;;;;;;;17.63;71.32;102238.84;4971247;28;20034;-78
2022/06/12 07:25:01;;;;;;;16.75;5.72;;;;;;;17.87;71.03;102244.00;4986815;28;20031;-78
2022/06/12 07:27:27;;;;;;;18.30;5.97;;;;;;;17.95;70.74;102242.38;4970981;28;20094;-78
2022/06/12 07:29:52;;;;;;;16.80;6.07;;;;;;;18.33;70.61;102244.50;4972114;28;20031;-78
2022/06/12 07:32:17;;;;;;;22.08;6.50;;;;;;;18.55;67.84;102251.53;4971828;28;20030;-78
2022/06/12 07:34:43;;;;;;;19.33;6.38;;;;;;;18.69;67.59;102245.03;4972281;28;20458;-78
2022/06/12 07:37:08;;;;;;;22.88;6.40;;;;;;;18.75;67.12;102241.84;4972673;28;20034;-79
2022/06/12 07:39:35;;;;;;;18.23;6.10;;;;;;;18.99;65.96;102242.38;4971226;28;20385;-79
2022/06/12 07:42:00;;;;;;;18.30;5.78;;;;;;;19.29;66.72;102252.19;4972378;28;20034;-79
2022/06/12 07:44:31;;;;;;;16.10;5.60;;;;;;;19.57;65.49;102244.41;4972336;28;20022;-78
2022/06/12 07:46:58;;;;;;;20.27;6.03;;;;;;;19.80;62.93;102239.69;4971923;28;20035;-78
2022/06/12 07:49:25;;;;;;;17.35;6.30;;;;;;;19.74;63.29;102241.06;4972197;28;20062;-78
2022/06/12 07:51:52;;;;;;;15.70;4.88;;;;;;;19.97;61.71;102245.16;4971597;28;20460;-79
2022/06/12 07:54:18;;;;;;;16.52;4.95;;;;;;;20.16;61.16;102243.47;4971655;28;20030;-79
2022/06/12 07:56:44;;;;;;;17.02;5.22;;;;;;;20.46;60.52;102239.81;4971618;28;20126;-79
2022/06/12 07:59:10;;;;;;;15.88;5.03;;;;;;;20.62;59.64;102237.38;4972177;28;20026;-79
2022/06/12 08:01:37;;;;;;;14.75;5.07;;;;;;;20.62;59.53;102235.53;4969818;28;20405;-79
2022/06/12 08:04:03;;;;;;;15.43;5.30;;;;;;;20.65;59.28;102248.63;4983306;28;20054;-79
2022/06/12 08:06:33;;;;;;;14.23;4.57;;;;;;;20.88;59.70;102237.59;4951278;28;20019;-79
2022/06/12 08:08:58;;;;;;;16.70;4.72;;;;;;;20.96;57.25;102235.84;4949673;29;20109;-79
2022/06/12 08:11:26;;;;;;;13.23;4.63;;;;;;;21.15;57.07;102236.75;4951064;28;20031;-79
2022/06/12 08:13:52;;;;;;;17.73;5.05;;;;;;;21.15;57.09;102239.41;4951007;28;20035;-79
2022/06/12 08:16:19;;;;;;;13.77;4.97;;;;;;;20.94;56.52;102239.66;4950904;28;20050;-79
2022/06/12 08:18:45;;;;;;;14.15;4.53;;;;;;;20.81;58.51;102236.47;4962486;28;20478;-79
2022/06/12 08:21:13;;;;;;;17.92;5.45;;;;;;;20.58;58.61;102236.81;4970569;28;20098;-79
2022/06/12 08:23:50;;;;;;;17.80;5.03;;;;;;;20.43;59.19;102242.78;4969584;28;20031;-79
2022/06/12 08:26:29;;;;;;;19.73;5.18;;;;;;;20.45;59.55;102240.81;4969208;28;20057;-79
2022/06/12 08:29:00;;;;;;;13.73;4.60;;;;;;;20.35;59.21;102241.63;4969956;28;20030;-80
2022/06/12 08:31:34;;;;;;;13.23;4.47;;;;;;;20.37;59.86;102240.63;4970308;28;20085;-80
2022/06/12 08:34:03;;;;;;;12.40;4.90;;;;;;;20.32;59.53;102246.41;4969401;28;20026;-80
2022/06/12 08:36:32;;;;;;;13.05;4.70;;;;;;;20.28;60.29;102245.00;4969086;28;20034;-80
2022/06/12 08:38:58;;;;;;;15.40;5.25;;;;;;;20.36;58.79;102239.78;4985081;28;20041;-80
2022/06/12 08:41:31;;;;;;;14.60;5.35;;;;;;;20.39;58.50;102238.66;4969896;28;20062;-79
2022/06/12 08:44:10;;;;;;;12.30;5.40;;;;;;;20.29;58.84;102236.00;4967995;28;20031;-80
2022/06/12 08:47:11;;;;;;;15.13;4.68;;;;;;;20.49;60.61;102245.72;4969517;28;20026;-79
2022/06/12 08:50:01;;;;;;;12.68;4.30;;;;;;;20.58;57.96;102236.81;4970189;28;20022;-80
2022/06/12 08:52:33;;;;;;;15.40;5.20;;;;;;;20.41;57.08;102228.69;4971133;28;20034;-80
2022/06/12 08:55:12;;;;;;;14.07;4.57;;;;;;;20.46;59.01;102227.28;4986142;28;20049;-80
2022/06/12 08:57:52;;;;;;;14.10;4.07;;;;;;;20.49;56.29;102227.00;4969824;28;20023;-80
2022/06/12 09:00:22;;;;;;;10.48;4.00;;;;;;;20.30;56.36;102219.81;4970537;28;20038;-81
2022/06/12 09:02:48;;;;;;;14.88;4.60;;;;;;;20.37;56.17;102217.41;4970447;28;20092;-80
2022/06/12 09:05:18;;;;;;;14.07;4.85;;;;;;;20.55;56.51;102226.41;4973185;28;20035;-79
2022/06/12 09:08:04;;;;;;;13.25;4.45;;;;;;;20.70;56.57;102210.75;4951212;28;20066;-80
2022/06/12 09:10:53;;;;;;;12.77;4.43;;;;;;;21.08;57.28;102215.09;4949453;28;20078;-81
2022/06/12 09:13:24;;;;;;;12.52;3.92;;;;;;;21.22;55.94;102209.25;4935824;29;20031;-81
2022/06/12 09:16:17;;;;;;;12.65;4.35;;;;;;;21.41;55.69;102207.47;4950023;28;20625;-81
2022/06/12 09:19:04;;;;;;;15.55;4.55;;;;;;;21.54;53.94;102207.94;4960459;28;20126;-80
2022/06/12 09:21:34;;;;;;;17.75;4.85;;;;;;;21.57;52.16;102207.63;4967607;28;20544;-81
2022/06/12 09:24:21;;;;;;;10.93;4.18;;;;;;;21.81;53.72;102205.19;4968653;28;20030;-81
2022/06/12 09:27:08;;;;;;;12.90;4.53;;;;;;;22.02;51.32;102204.91;4967243;28;20034;-81
2022/06/12 09:29:58;;;;;;;12.77;4.55;;;;;;;22.17;53.72;102200.69;4969327;28;20027;-81
2022/06/12 09:32:28;;;;;;;9.68;4.15;;;;;;;22.44;50.86;102206.91;4967789;28;20026;-80
2022/06/12 09:35:08;;;;;;;15.00;5.07;;;;;;;22.31;50.89;102201.09;4967873;28;20034;-80
2022/06/12 09:40:39;;;;;;;10.73;4.60;;;;;;;22.60;51.52;102207.00;4968289;28;20041;-80
2022/06/12 09:43:37;;;;;;;10.55;4.72;;;;;;;22.77;50.87;102197.19;4969560;28;20027;-81
2022/06/12 09:46:22;;;;;;;11.52;4.30;;;;;;;22.92;49.74;102202.84;4967448;28;20049;-81
2022/06/12 09:49:06;;;;;;;11.40;3.80;;;;;;;22.89;50.30;102201.31;4967554;28;20027;-80
2022/06/12 09:51:37;;;;;;;9.57;3.97;;;;;;;22.82;50.06;102200.28;4968982;28;20077;-80
2022/06/12 09:54:37;;;;;;;9.23;3.45;;;;;;;22.66;49.35;102205.50;4967809;28;20038;-80
2022/06/12 09:57:18;;;;;;;9.13;3.97;;;;;;;22.82;49.81;102197.59;4974522;28;20019;-80
2022/06/12 10:00:03;;;;;;;13.70;4.22;;;;;;;22.86;49.59;102198.94;4973663;28;20031;-80
2022/06/12 10:02:40;;;;;;;12.55;3.97;;;;;;;22.96;48.62;102205.03;4972381;28;20031;-80
2022/06/12 10:05:15;;;;;;;11.27;2.90;;;;;;;23.12;48.73;102205.09;4952471;28;20474;-81
2022/06/12 10:08:22;;;;;;;11.50;2.88;;;;;;;23.34;49.60;102192.06;4934240;29;20371;-80
2022/06/12 10:11:07;;;;;;;10.55;3.20;;;;;;;23.58;49.87;102189.44;4929751;29;20059;-80
2022/06/12 10:13:44;;;;;;;13.38;4.00;;;;;;;23.44;47.56;102190.91;4934915;29;20020;-81
2022/06/12 10:16:16;;;;;;;14.48;4.20;;;;;;;23.42;47.33;102192.09;4935152;29;20028;-80
2022/06/12 10:18:48;;;;;;;14.05;4.03;;;;;;;23.25;47.55;102182.31;4947330;29;20105;-81
2022/06/12 10:21:20;;;;;;;12.00;3.70;;;;;;;23.11;47.53;102195.34;4954015;28;20031;-80
2022/06/12 10:23:47;;;;;;;11.02;3.70;;;;;;;22.92;47.43;102178.66;4952006;29;20042;-80
2022/06/12 10:26:29;;;;;;;11.13;3.90;;;;;;;22.76;48.67;102185.59;4968339;28;20082;-80
2022/06/12 10:29:12;;;;;;;;;;;;;;;22.79;50.57;102189.81;4953155;28;20035;-78
2022/06/12 10:31:57;;;;;;;13.20;3.50;;;;;;;22.53;50.01;102187.16;4951315;29;19961;-79
2022/06/12 10:34:28;;;;;;;9.52;3.00;;;;;;;22.37;47.76;102179.00;4953138;29;20031;-79
2022/06/12 10:36:53;;;;;;;11.68;3.38;;;;;;;22.23;47.84;102180.44;4950844;29;20058;-79
2022/06/12 10:39:23;;;;;;;9.45;3.40;;;;;;;21.96;48.55;102170.63;4952925;28;20062;-79
2022/06/12 10:41:54;;;;;;;11.13;3.28;;;;;;;21.93;50.07;102172.78;4967436;28;20504;-79
2022/06/12 10:44:39;;;;;;;10.85;3.47;;;;;;;21.98;51.35;102178.53;4952392;28;20031;-78
2022/06/12 10:47:31;;;;;;;8.52;2.78;;;;;;;22.12;50.72;102180.69;4951725;29;20028;-79
2022/06/12 10:50:19;;;;;;;11.38;3.15;;;;;;;22.16;49.58;102182.06;4952588;28;20050;-79
2022/06/12 10:52:58;;;;;;;7.10;2.72;;;;;;;22.03;49.60;102174.44;4952243;28;20102;-79
2022/06/12 10:55:37;;;;;;;10.50;3.03;;;;;;;22.19;49.83;102181.75;4952906;28;20037;-79
2022/06/12 10:58:17;;;;;;;15.13;3.58;;;;;;;22.37;47.99;102173.63;4951136;29;20031;-79
2022/06/12 11:00:46;;;;;;;8.45;2.70;;;;;;;22.75;47.71;102165.13;4951960;28;20031;-79
2022/06/12 11:03:39;;;;;;;14.10;3.00;;;;;;;23.08;47.97;102168.81;4952732;28;20505;-79
2022/06/12 11:06:22;;;;;;;;;;;;;;;23.51;48.71;102169.59;4971361;28;20110;-80
2022/06/12 11:09:06;;;;;;;11.38;3.10;;;;;;;23.96;44.27;102162.91;4970045;28;19925;-79
2022/06/12 11:11:56;;;;;;;8.80;2.63;;;;;;;24.26;44.88;102156.81;4964337;28;20027;-79
2022/06/12 11:14:37;;;;;;;9.20;2.55;;;;;;;24.46;45.02;102149.25;4952080;29;20473;-79
2022/06/12 11:17:16;;;;;;;8.25;2.70;;;;;;;24.28;42.57;102154.84;4953922;28;20027;-79
2022/06/12 11:19:50;;;;;;;7.57;2.67;;;;;;;24.22;43.64;102158.19;4933008;29;20028;-79
2022/06/12 11:22:34;;;;;;;11.57;2.97;;;;;;;24.40;45.34;102162.53;4949139;28;20035;-79
2022/06/12 11:25:18;;;;;;;14.15;2.88;;;;;;;24.41;45.22;102158.84;4933953;29;20024;-80
2022/06/12 11:28:20;;;;;;;14.25;2.92;;;;;;;24.19;45.03;102153.16;4933672;29;20037;-79
2022/06/12 11:31:15;;;;;;;10.90;2.40;;;;;;;23.86;44.86;102155.03;4948643;29;20032;-79
2022/06/12 11:33:51;;;;;;;9.82;2.67;;;;;;;23.51;45.23;102158.00;4918279;29;20031;-79
2022/06/12 11:36:30;;;;;;;5.82;2.40;;;;;;;23.36;46.22;102157.81;4948497;28;20032;-80
2022/06/12 11:39:18;;;;;;;7.95;2.40;;;;;;;23.45;43.68;102156.81;4947486;28;20034;-77
2022/06/12 11:42:06;;;;;;;8.45;2.40;;;;;;;23.62;43.26;102145.13;4932208;29;20035;-78
2022/06/12 11:44:49;;;;;;;9.20;2.53;;;;;;;23.94;43.00;102138.03;4920822;29;20047;-78
2022/06/12 11:47:33;;;;;;;9.93;2.70;;;;;;;24.29;43.32;102136.84;4947154;29;20031;-79
2022/06/12 11:50:20;;;;;;;6.68;2.53;;;;;;;24.35;41.61;102137.00;4932738;29;20027;-79
2022/06/12 11:53:00;;;;;;;9.43;2.30;;;;;;;24.23;40.74;102127.59;4946194;29;20038;-79
2022/06/12 11:55:41;;;;;;;9.95;2.50;;;;;;;24.02;41.74;102128.16;4932452;29;20030;-80
2022/06/12 11:58:12;;;;;;;9.07;2.60;;;;;;;23.86;41.69;102135.38;4932786;29;20039;-79
2022/06/12 12:01:00;;;;;;;8.50;2.20;;;;;;;23.65;43.05;102134.03;4945735;29;20032;-79